createdAt,value
2023-03-17T00:03:24.595Z,6.40
2023-03-17T00:07:27.472Z,6.40
2023-03-17T00:11:31.628Z,6.40
2023-03-17T00:15:34.591Z,6.30
2023-03-17T00:19:37.484Z,6.30
2023-03-17T00:23:40.934Z,6.30
2023-03-17T00:27:45.113Z,5.90
2023-03-17T00:31:48.107Z,5.50
2023-03-17T00:35:50.972Z,5.60
2023-03-17T00:39:54.560Z,5.40
2023-03-17T00:43:58.814Z,5.30
2023-03-17T00:48:01.825Z,5.40
2023-03-17T00:52:05.006Z,5.60
2023-03-17T00:56:14.343Z,5.70
2023-03-17T01:00:25.621Z,5.80
2023-03-17T01:04:28.671Z,5.80
2023-03-17T01:08:32.282Z,5.90
2023-03-17T01:12:35.241Z,5.90
2023-03-17T01:16:39.869Z,5.70
2023-03-17T01:20:43.734Z,5.60
2023-03-17T01:24:48.148Z,5.50
2023-03-17T01:28:50.979Z,5.20
2023-03-17T01:32:55.757Z,5.30
2023-03-17T01:36:59.972Z,5.00
2023-03-17T01:41:03.328Z,4.90
2023-03-17T01:45:10.339Z,4.70
2023-03-17T01:49:19.981Z,4.70
2023-03-17T01:53:23.784Z,4.90
2023-03-17T01:57:31.402Z,4.90
2023-03-17T02:01:38.785Z,5.00
2023-03-17T02:05:43.114Z,4.80
2023-03-17T02:09:46.088Z,4.80
2023-03-17T02:13:49.055Z,4.60
2023-03-17T02:17:51.845Z,4.60
2023-03-17T02:21:58.023Z,4.50
2023-03-17T02:26:00.858Z,4.40
2023-03-17T02:30:03.952Z,4.30
2023-03-17T02:34:06.805Z,4.40
2023-03-17T02:38:10.995Z,4.40
2023-03-17T02:42:14.791Z,4.40
2023-03-17T02:46:17.773Z,4.40
2023-03-17T02:50:23.198Z,4.40
2023-03-17T02:54:27.557Z,4.40
2023-03-17T02:58:30.433Z,4.50
2023-03-17T03:02:33.342Z,4.50
2023-03-17T03:06:37.453Z,4.40
2023-03-17T03:10:41.749Z,4.30
2023-03-17T03:14:44.574Z,4.10
2023-03-17T03:18:47.477Z,4.00
2023-03-17T03:22:50.658Z,4.00
2023-03-17T03:26:54.825Z,4.10
2023-03-17T03:30:57.649Z,4.20
2023-03-17T03:35:00.457Z,4.10
2023-03-17T03:39:03.324Z,4.10
2023-03-17T03:43:21.783Z,4.10
2023-03-17T03:47:26.304Z,4.10
2023-03-17T03:51:29.098Z,4.00
2023-03-17T03:55:32.107Z,4.00
2023-03-17T03:59:36.485Z,4.20
2023-03-17T04:03:39.327Z,4.30
2023-03-17T04:07:43.186Z,4.40
2023-03-17T04:11:45.995Z,4.50
2023-03-17T04:15:50.213Z,4.50
2023-03-17T04:19:53.358Z,4.50
2023-03-17T04:23:56.184Z,4.50
2023-03-17T04:27:59.312Z,4.60
2023-03-17T04:32:03.746Z,4.50
2023-03-17T04:36:07.748Z,4.60
2023-03-17T04:40:12.637Z,4.60
2023-03-17T04:44:15.469Z,4.60
2023-03-17T04:48:19.628Z,4.60
2023-03-17T04:52:22.578Z,4.50
2023-03-17T04:56:25.420Z,4.60
2023-03-17T05:00:28.676Z,4.50
2023-03-17T05:04:33.041Z,4.50
2023-03-17T05:08:36.303Z,4.40
2023-03-17T05:12:39.094Z,4.50
2023-03-17T05:16:41.940Z,4.50
2023-03-17T05:20:46.203Z,4.40
2023-03-17T05:24:49.018Z,4.50
2023-03-17T05:28:51.920Z,4.50
2023-03-17T05:32:54.799Z,4.40
2023-03-17T05:36:59.004Z,4.40
2023-03-17T05:41:02.821Z,4.20
2023-03-17T05:45:07.225Z,4.00
2023-03-17T05:49:10.083Z,4.00
2023-03-17T05:53:14.269Z,4.10
2023-03-17T05:57:17.195Z,4.30
2023-03-17T06:01:20.004Z,4.50
2023-03-17T06:05:22.870Z,4.60
2023-03-17T06:09:27.166Z,4.70
2023-03-17T06:13:30.053Z,4.80
2023-03-17T06:17:32.937Z,4.80
2023-03-17T06:21:35.747Z,4.90
2023-03-17T06:25:39.964Z,4.50
2023-03-17T06:29:42.751Z,4.70
2023-03-17T06:33:45.550Z,4.80
2023-03-17T06:37:48.373Z,4.90
2023-03-17T06:41:52.731Z,5.00
2023-03-17T06:45:55.648Z,5.30
2023-03-17T06:49:58.561Z,5.50
2023-03-17T06:54:01.453Z,5.70
2023-03-17T06:58:05.618Z,5.60
2023-03-17T07:02:08.536Z,6.20
2023-03-17T07:06:11.372Z,6.80
2023-03-17T07:10:17.208Z,7.20
2023-03-17T07:14:21.496Z,8.30
2023-03-17T07:18:24.400Z,8.70
2023-03-17T07:22:27.196Z,9.80
2023-03-17T07:26:30.022Z,11.00
2023-03-17T07:30:34.218Z,12.50
2023-03-17T07:34:37.415Z,14.10
2023-03-17T07:38:40.221Z,15.30
2023-03-17T07:42:43.627Z,16.90
2023-03-17T07:46:47.867Z,18.30
2023-03-17T07:50:50.792Z,19.50
2023-03-17T07:54:53.931Z,20.60
2023-03-17T07:58:58.425Z,21.90
2023-03-17T08:03:10.272Z,22.60
2023-03-17T08:07:14.603Z,23.40
2023-03-17T08:11:17.594Z,24.10
2023-03-17T08:15:21.946Z,25.20
2023-03-17T08:19:26.137Z,25.90
2023-03-17T08:23:29.145Z,27.40
2023-03-17T08:27:33.810Z,28.20
2023-03-17T08:31:37.450Z,28.90
2023-03-17T08:35:43.601Z,29.80
2023-03-17T08:39:46.764Z,30.50
2023-03-17T08:43:50.362Z,30.70
2023-03-17T08:47:53.475Z,31.50
2023-03-17T08:51:57.590Z,32.10
2023-03-17T08:56:00.522Z,32.90
2023-03-17T09:00:09.619Z,32.50
2023-03-17T09:04:12.336Z,32.80
2023-03-17T09:08:16.573Z,32.40
2023-03-17T09:12:19.376Z,32.40
2023-03-17T09:16:23.781Z,32.40
2023-03-17T09:20:27.008Z,31.60
2023-03-17T09:24:31.273Z,31.10
2023-03-17T09:28:35.194Z,31.30
2023-03-17T09:32:38.185Z,31.20
2023-03-17T09:36:40.934Z,31.30
2023-03-17T09:40:50.185Z,31.60
2023-03-17T09:45:10.665Z,32.00
2023-03-17T09:49:16.233Z,32.30
2023-03-17T09:53:22.987Z,33.00
2023-03-17T09:57:30.502Z,33.40
2023-03-17T10:01:33.540Z,33.40
2023-03-17T10:05:36.753Z,33.00
2023-03-17T10:09:46.150Z,32.10
2023-03-17T10:13:58.922Z,32.60
2023-03-17T10:18:02.432Z,32.70
2023-03-17T10:22:08.089Z,32.50
2023-03-17T10:26:24.909Z,32.80
2023-03-17T10:30:33.643Z,31.90
2023-03-17T10:34:39.478Z,31.30
2023-03-17T10:38:43.179Z,30.90
2023-03-17T10:42:49.067Z,32.50
2023-03-17T10:47:00.631Z,33.60
2023-03-17T10:51:08.456Z,33.50
2023-03-17T10:55:15.617Z,32.70
2023-03-17T10:59:20.494Z,33.40
2023-03-17T11:03:28.449Z,34.70
2023-03-17T11:07:39.424Z,35.20
2023-03-17T11:11:47.153Z,35.30
2023-03-17T11:15:54.331Z,35.10
2023-03-17T11:20:09.637Z,34.30
2023-03-17T11:24:16.860Z,33.30
2023-03-17T11:28:21.642Z,31.80
2023-03-17T11:32:29.640Z,31.50
2023-03-17T11:36:47.025Z,32.00
2023-03-17T11:41:08.898Z,31.80
2023-03-17T11:45:20.868Z,32.90
2023-03-17T11:49:29.991Z,33.10
2023-03-17T11:53:56.876Z,33.00
2023-03-17T11:58:03.212Z,32.90
2023-03-17T12:02:17.303Z,33.10
2023-03-17T12:06:22.310Z,34.20
2023-03-17T12:10:30.947Z,35.30
2023-03-17T12:14:39.439Z,35.20
2023-03-17T12:18:49.736Z,34.60
2023-03-17T12:22:58.755Z,34.60
2023-03-17T12:27:06.924Z,34.40
2023-03-17T12:31:14.821Z,33.30
2023-03-17T12:35:27.847Z,32.80
2023-03-17T12:39:33.557Z,33.00
2023-03-17T12:43:47.914Z,32.50
2023-03-17T12:48:11.103Z,32.40
2023-03-17T12:52:38.737Z,32.20
2023-03-17T12:56:46.102Z,31.80
2023-03-17T13:00:57.633Z,31.00
2023-03-17T13:05:01.772Z,30.60
2023-03-17T13:09:37.281Z,29.80
2023-03-17T13:13:45.691Z,29.40
2023-03-17T13:17:50.129Z,28.10
2023-03-17T13:22:18.665Z,27.70
2023-03-17T13:26:44.712Z,27.30
2023-03-17T13:30:58.276Z,26.30
2023-03-17T13:35:22.136Z,25.80
2023-03-17T13:39:56.307Z,25.60
2023-03-17T13:44:15.365Z,25.50
2023-03-17T13:48:39.118Z,25.00
2023-03-17T13:52:44.337Z,24.70
2023-03-17T13:56:49.307Z,24.30
2023-03-17T14:01:00.667Z,23.90
2023-03-17T14:05:07.407Z,23.80
2023-03-17T14:09:19.290Z,23.60
2023-03-17T14:13:26.503Z,23.70
2023-03-17T14:17:34.155Z,23.40
2023-03-17T14:21:37.129Z,23.20
2023-03-17T14:25:40.597Z,23.20
2023-03-17T14:29:43.540Z,22.80
2023-03-17T14:33:47.702Z,22.50
2023-03-17T14:37:51.973Z,22.30
2023-03-17T14:42:00.245Z,22.10
2023-03-17T14:46:04.534Z,21.90
2023-03-17T14:50:17.361Z,21.80
2023-03-17T14:54:22.762Z,22.00
2023-03-17T14:58:28.395Z,22.00
2023-03-17T15:02:35.270Z,22.00
2023-03-17T15:06:48.913Z,22.00
2023-03-17T15:10:51.763Z,21.90
2023-03-17T15:14:57.372Z,21.90
2023-03-17T15:19:06.992Z,21.80
2023-03-17T15:23:18.374Z,21.70
2023-03-17T15:27:21.127Z,21.60
2023-03-17T15:31:28.481Z,21.50
2023-03-17T15:35:31.487Z,21.50
2023-03-17T15:39:35.699Z,21.30
2023-03-17T15:43:38.684Z,21.30
2023-03-17T15:47:41.796Z,21.20
2023-03-17T15:51:44.614Z,21.10
2023-03-17T15:55:49.395Z,21.10
2023-03-17T15:59:52.499Z,20.90
2023-03-17T16:03:55.369Z,20.70
2023-03-17T16:07:58.681Z,20.60
2023-03-17T16:12:03.125Z,20.40
2023-03-17T16:16:06.194Z,20.20
2023-03-17T16:20:23.657Z,20.00
2023-03-17T16:24:28.166Z,19.70
2023-03-17T16:28:33.606Z,19.20
2023-03-17T16:32:36.511Z,18.90
2023-03-17T16:36:40.202Z,18.60
2023-03-17T16:40:43.733Z,18.30
2023-03-17T16:44:48.040Z,17.90
2023-03-17T16:48:51.457Z,17.90
2023-03-17T16:52:54.777Z,17.70
2023-03-17T16:56:57.813Z,17.60
2023-03-17T17:01:04.648Z,17.50
2023-03-17T17:05:14.125Z,17.40
2023-03-17T17:09:17.017Z,17.20
2023-03-17T17:13:19.863Z,17.00
2023-03-17T17:17:24.113Z,17.10
2023-03-17T17:21:27.548Z,17.10
2023-03-17T17:25:31.065Z,17.00
2023-03-17T17:29:33.989Z,17.00
2023-03-17T17:33:38.925Z,16.90
2023-03-17T17:37:41.720Z,16.80
2023-03-17T17:41:44.541Z,16.80
2023-03-17T17:45:49.439Z,16.70
2023-03-17T17:49:53.577Z,16.60
2023-03-17T17:53:56.597Z,16.50
2023-03-17T17:57:59.390Z,16.40
2023-03-17T18:02:03.286Z,16.20
2023-03-17T18:06:07.554Z,16.10
2023-03-17T18:10:17.073Z,16.00
2023-03-17T18:14:19.835Z,15.80
2023-03-17T18:18:22.730Z,15.80
2023-03-17T18:22:27.025Z,15.70
2023-03-17T18:26:29.763Z,15.60
2023-03-17T18:30:34.766Z,15.50
2023-03-17T18:34:43.384Z,15.40
2023-03-17T18:38:47.558Z,15.20
2023-03-17T18:42:50.380Z,15.30
2023-03-17T18:46:53.236Z,15.20
2023-03-17T18:50:56.122Z,14.80
2023-03-17T18:55:00.589Z,14.60
2023-03-17T18:59:03.466Z,14.30
2023-03-17T19:03:06.447Z,14.10
2023-03-17T19:07:09.258Z,14.00
2023-03-17T19:11:15.356Z,13.90
2023-03-17T19:15:18.385Z,13.80
2023-03-17T19:19:21.505Z,13.70
2023-03-17T19:23:24.664Z,13.60
2023-03-17T19:27:28.815Z,13.60
2023-03-17T19:31:31.678Z,13.60
2023-03-17T19:35:34.541Z,13.30
2023-03-17T19:39:37.762Z,13.20
2023-03-17T19:43:41.997Z,13.10
2023-03-17T19:47:44.807Z,12.90
2023-03-17T19:51:48.876Z,12.90
2023-03-17T19:55:51.692Z,12.90
2023-03-17T19:59:56.145Z,12.70
2023-03-17T20:03:59.128Z,12.80
2023-03-17T20:08:02.092Z,12.70
2023-03-17T20:12:05.816Z,12.50
2023-03-17T20:16:10.583Z,12.30
2023-03-17T20:20:15.336Z,12.20
2023-03-17T20:24:18.140Z,12.30
2023-03-17T20:28:22.049Z,12.50
2023-03-17T20:32:27.554Z,12.30
2023-03-17T20:36:30.413Z,12.20
2023-03-17T20:40:33.414Z,12.20
2023-03-17T20:44:36.464Z,12.10
2023-03-17T20:48:40.848Z,12.00
2023-03-17T20:52:43.760Z,11.90
2023-03-17T20:56:48.717Z,11.80
2023-03-17T21:00:51.577Z,11.70
2023-03-17T21:04:55.776Z,11.10
2023-03-17T21:08:58.650Z,10.80
2023-03-17T21:13:01.487Z,10.80
2023-03-17T21:17:04.323Z,10.80
2023-03-17T21:21:08.627Z,10.80
2023-03-17T21:25:11.727Z,10.80
2023-03-17T21:29:14.617Z,10.80
2023-03-17T21:33:17.462Z,10.90
2023-03-17T21:37:21.623Z,10.90
2023-03-17T21:41:30.731Z,10.90
2023-03-17T21:45:33.870Z,10.80
2023-03-17T21:49:36.728Z,10.70
2023-03-17T21:53:40.951Z,10.80
2023-03-17T21:57:43.993Z,10.70
2023-03-17T22:01:46.805Z,10.60
2023-03-17T22:05:50.734Z,10.50
2023-03-17T22:09:56.926Z,10.50
2023-03-17T22:13:59.905Z,10.40
2023-03-17T22:18:02.949Z,10.40
2023-03-17T22:22:06.340Z,10.50
2023-03-17T22:26:13.410Z,10.40
2023-03-17T22:30:17.029Z,10.30
2023-03-17T22:34:20.252Z,10.20
2023-03-17T22:38:24.832Z,10.20
2023-03-17T22:42:29.354Z,10.30
2023-03-17T22:46:32.186Z,10.30
2023-03-17T22:50:35.029Z,10.00
2023-03-17T22:54:37.872Z,9.90
2023-03-17T22:58:42.099Z,10.00
2023-03-17T23:02:46.271Z,9.70
2023-03-17T23:06:49.480Z,9.70
2023-03-17T23:10:53.540Z,9.60
2023-03-17T23:14:58.209Z,9.60
2023-03-17T23:19:01.191Z,9.50
2023-03-17T23:23:04.033Z,9.50
2023-03-17T23:27:07.917Z,9.30
2023-03-17T23:31:12.100Z,9.30
2023-03-17T23:35:15.356Z,9.30
2023-03-17T23:39:18.386Z,9.20
2023-03-17T23:43:21.312Z,9.20
2023-03-17T23:47:26.236Z,9.30
2023-03-17T23:51:29.074Z,9.10
2023-03-17T23:55:31.916Z,8.90
2023-03-17T23:59:35.304Z,8.90
